»·PEaware :: UAL1571 KPHX-KSFO

UAL1571 :: KPHX-KSFO

FLIGHT INFORMATION

Flight Status: Arrived
Operator:
United Airlines
More flights by this operator :: More flights under this callsign
Pilot: Saso K. (7898)
Aircraft: AIRBUS A320
(A320)
More flights by this aircraft type
Origin: KPHX Phoenix Sky Harbor Intl
United States
Destination: KSFO San Francisco Intl
United States
More flights between these airports :: More routes between these airports
Route: MAYSA5 SISIE DOVEE BTY RUSME DYAMD3
File this flight plan on PilotEdge
Remarks: EET / KZLA0020 KZOA0052
Altitude:
(Current/Filed)
34,000ft
Speed:
(Current/Filed)
437kts
Departed: 29-May-17 03:51 PM
Arrived: 29-May-17 05:32 PM
Distance/Time
Traveled:
565nm/1:40
Distance/Time
To Go:
Arrived

Flight Plot

Page will automatically refresh every two minutes.

Flight plan parsing failed; only flown route is shown


Map Options




Map Legend


Flown Route
Filed Route
Departure Airport
Arrival Airport
Navaid (VOR, NDB)
Fix

Horizontal Profiles

Position Reports

Time Latitude Longitude Heading Altitude Ground
Speed
29-May-17 15:30 33.436548 -111.998770 269 1131ft 0kts
29-May-17 15:31 33.436548 -111.998770 269 1131ft 0kts
29-May-17 15:32 33.436548 -111.998770 269 1131ft 0kts
29-May-17 15:33 33.436548 -111.998770 269 1131ft 0kts
29-May-17 15:34 33.436548 -111.998770 269 1131ft 0kts
29-May-17 15:35 33.436548 -111.998770 269 1131ft 0kts
29-May-17 15:36 33.436548 -111.998770 269 1131ft 0kts
29-May-17 15:37 33.436548 -111.998770 269 1131ft 0kts
29-May-17 15:38 33.436548 -111.998770 269 1131ft 0kts
29-May-17 15:39 33.436548 -111.998770 269 1131ft 0kts
29-May-17 15:40 33.436548 -111.998770 269 1131ft 0kts
29-May-17 15:41 33.436548 -111.998770 269 1131ft 0kts
29-May-17 15:42 33.436548 -111.998770 269 1131ft 0kts
29-May-17 15:43 33.436548 -111.998770 269 1131ft 0kts
29-May-17 15:44 33.436547 -111.998557 269 1131ft 2kts
29-May-17 15:45 33.436540 -111.997822 273 1131ft 2kts
29-May-17 15:46 33.436536 -111.997775 275 1131ft 0kts
29-May-17 15:47 33.436536 -111.997775 275 1131ft 0kts
29-May-17 15:48 33.436999 -111.998248 355 1132ft 3kts
29-May-17 15:49 33.438467 -111.998271 0 1134ft 6kts
29-May-17 15:50 33.439046 -111.995932 90 1134ft 14kts
29-May-17 15:51 33.439149 -111.992395 52 1134ft 5kts
29-May-17 15:52 33.440696 -111.992255 0 1136ft 2kts
29-May-17 15:53 33.440835 -112.000076 270 1136ft 112kts
29-May-17 15:54 33.440750 -112.046196 267 2727ft 159kts
29-May-17 15:55 33.456137 -112.096062 316 4253ft 223kts
29-May-17 15:56 33.504078 -112.146595 316 5832ft 284kts
29-May-17 15:57 33.564943 -112.184622 344 8197ft 302kts
29-May-17 15:58 33.637121 -112.207666 344 10494ft 320kts
29-May-17 15:59 33.720077 -112.234447 344 11709ft 369kts
29-May-17 16:00 33.812927 -112.264503 344 13543ft 386kts
29-May-17 16:01 33.909493 -112.295841 343 15432ft 398kts
29-May-17 16:02 34.009276 -112.328400 341 17223ft 408kts
29-May-17 16:03 34.094075 -112.400906 317 18908ft 412kts
29-May-17 16:04 34.175732 -112.483247 317 20629ft 417kts
29-May-17 16:05 34.258514 -112.566810 316 22272ft 423kts
29-May-17 16:06 34.342123 -112.651438 316 23753ft 428kts
29-May-17 16:07 34.426982 -112.737564 316 25129ft 433kts
29-May-17 16:08 34.512016 -112.824109 316 26367ft 438kts
29-May-17 16:09 34.593457 -112.909041 315 27294ft 446kts
29-May-17 16:10 34.677454 -113.000779 315 28187ft 454kts
29-May-17 16:11 34.764608 -113.096240 315 29080ft 460kts
29-May-17 16:12 34.851209 -113.190693 314 30295ft 455kts
29-May-17 16:13 34.937326 -113.285564 315 31648ft 447kts
29-May-17 16:14 35.003563 -113.395517 290 32695ft 438kts
29-May-17 16:15 35.044580 -113.523074 291 33566ft 437kts
29-May-17 16:16 35.085585 -113.650735 291 33956ft 432kts
29-May-17 16:17 35.123385 -113.768849 291 33957ft 433kts
29-May-17 16:18 35.163778 -113.895689 291 33958ft 433kts
29-May-17 16:19 35.204068 -114.022714 291 33956ft 433kts
29-May-17 16:20 35.243708 -114.147391 291 33954ft 433kts
29-May-17 16:21 35.284067 -114.275116 290 33942ft 434kts
29-May-17 16:22 35.324057 -114.402812 290 33835ft 434kts
29-May-17 16:23 35.363740 -114.530087 290 33764ft 434kts
29-May-17 16:24 35.403597 -114.658477 290 33770ft 434kts
29-May-17 16:25 35.444388 -114.785850 297 33788ft 434kts
29-May-17 16:26 35.514363 -114.894177 310 33867ft 435kts
29-May-17 16:27 35.587719 -114.997269 310 33903ft 435kts
29-May-17 16:28 35.660911 -115.100475 309 33876ft 437kts
29-May-17 16:29 35.735314 -115.204916 308 33876ft 443kts
29-May-17 16:30 35.810839 -115.312050 308 33892ft 451kts
29-May-17 16:31 35.887374 -115.420974 308 33962ft 455kts
29-May-17 16:32 35.963738 -115.530007 308 33945ft 455kts
29-May-17 16:33 36.039387 -115.638367 308 33937ft 454kts
29-May-17 16:34 36.115279 -115.747429 308 33948ft 453kts
29-May-17 16:35 36.191078 -115.856710 308 33940ft 452kts
29-May-17 16:36 36.266465 -115.965749 308 33926ft 451kts
29-May-17 16:37 36.341755 -116.075002 308 33925ft 451kts
29-May-17 16:38 36.416707 -116.183348 307 33931ft 451kts
29-May-17 16:39 36.492198 -116.293681 307 33936ft 451kts
29-May-17 16:40 36.566900 -116.403046 307 33939ft 451kts
29-May-17 16:41 36.641342 -116.512471 308 33938ft 451kts
29-May-17 16:42 36.715909 -116.622462 308 33938ft 451kts
29-May-17 16:43 36.790246 -116.732244 309 33939ft 451kts
29-May-17 16:44 36.871212 -116.825582 316 33994ft 453kts
29-May-17 16:45 36.956729 -116.920054 316 34098ft 453kts
29-May-17 16:46 37.043143 -117.015826 316 34086ft 455kts
29-May-17 16:47 37.128361 -117.110550 316 34043ft 459kts
29-May-17 16:48 37.210768 -117.201745 316 34064ft 465kts
29-May-17 16:49 37.299304 -117.300820 316 34135ft 468kts
29-May-17 16:50 37.388842 -117.401333 316 34141ft 469kts
29-May-17 16:51 37.471984 -117.505445 300 34092ft 465kts
29-May-17 16:52 37.504724 -117.646041 273 34073ft 456kts
29-May-17 16:53 37.516291 -117.790224 273 34016ft 453kts
29-May-17 16:54 37.527640 -117.931909 273 33973ft 452kts
29-May-17 16:55 37.538938 -118.075165 273 33968ft 451kts
29-May-17 16:56 37.550418 -118.217623 272 33976ft 452kts
29-May-17 16:57 37.561373 -118.360703 272 34002ft 451kts
29-May-17 16:58 37.572210 -118.504913 272 34124ft 451kts
29-May-17 16:59 37.582875 -118.649210 272 34200ft 451kts
29-May-17 17:00 37.593303 -118.792692 272 34214ft 451kts
29-May-17 17:01 37.603525 -118.935758 272 34201ft 452kts
29-May-17 17:02 37.613593 -119.079155 272 34190ft 454kts
29-May-17 17:03 37.623876 -119.221823 271 34215ft 456kts
29-May-17 17:04 37.633713 -119.366744 271 34232ft 456kts
29-May-17 17:05 37.643440 -119.513041 271 34231ft 456kts
29-May-17 17:06 37.653044 -119.660192 271 34050ft 456kts
29-May-17 17:07 37.662349 -119.805551 271 33898ft 456kts
29-May-17 17:08 37.671521 -119.951697 272 33933ft 455kts
29-May-17 17:09 37.680455 -120.096935 272 33971ft 455kts
29-May-17 17:10 37.689560 -120.240608 270 33964ft 454kts
29-May-17 17:11 37.697787 -120.383580 268 31414ft 464kts
29-May-17 17:12 37.684352 -120.532111 259 28448ft 464kts
29-May-17 17:13 37.667213 -120.677450 259 26109ft 447kts
29-May-17 17:14 37.650921 -120.813820 259 24808ft 414kts
29-May-17 17:15 37.635278 -120.942745 259 22250ft 399kts
29-May-17 17:16 37.618851 -121.067338 258 20048ft 386kts
29-May-17 17:17 37.603645 -121.183143 257 17978ft 363kts
29-May-17 17:18 37.589130 -121.293371 259 15964ft 355kts
29-May-17 17:19 37.577044 -121.400027 258 14021ft 345kts
29-May-17 17:20 37.564521 -121.507733 258 12051ft 335kts
29-May-17 17:21 37.552810 -121.607697 258 10935ft 301kts
29-May-17 17:22 37.533779 -121.695823 250 10290ft 284kts
29-May-17 17:23 37.513542 -121.780365 251 9144ft 268kts
29-May-17 17:24 37.494931 -121.857779 252 8128ft 257kts
29-May-17 17:25 37.494099 -121.935427 273 6803ft 249kts
29-May-17 17:26 37.498529 -122.012216 274 5200ft 234kts
29-May-17 17:27 37.502750 -122.086353 277 4139ft 233kts
29-May-17 17:28 37.526884 -122.149972 299 3565ft 219kts
29-May-17 17:29 37.552120 -122.210526 298 2586ft 213kts
29-May-17 17:30 37.574134 -122.263126 294 1707ft 160kts
29-May-17 17:31 37.590547 -122.302200 294 997ft 118kts
29-May-17 17:32 37.604423 -122.335297 292 447ft 121kts
29-May-17 17:33 37.617547 -122.366894 298 12ft 70kts
29-May-17 17:34 37.622126 -122.379527 278 27ft 22kts
29-May-17 17:35 37.622146 -122.385078 266 31ft 17kts
29-May-17 17:36 37.622372 -122.388510 299 31ft 16kts
29-May-17 17:37 37.621740 -122.391403 210 29ft 6kts
29-May-17 17:38 37.621507 -122.391607 222 29ft 0kts
29-May-17 17:39 37.619930 -122.392520 182 32ft 2kts
29-May-17 17:40 37.618561 -122.389555 116 32ft 10kts
29-May-17 17:41 37.617704 -122.388840 159 32ft 1kts
29-May-17 17:42 37.617687 -122.388831 157 32ft 0kts
29-May-17 17:43 37.617687 -122.388831 157 32ft 0kts

Navigation Log

Ident Type
Flight plan parsing failed, navigation log unavailable